createdAt,value
2018-01-30T00:02:19.741Z,80.00
2018-01-30T00:04:48.837Z,79.92
2018-01-30T00:07:17.950Z,79.72
2018-01-30T00:09:47.093Z,79.58
2018-01-30T00:12:16.222Z,79.55
2018-01-30T00:14:46.082Z,79.65
2018-01-30T00:17:15.170Z,79.61
2018-01-30T00:19:45.046Z,79.38
2018-01-30T00:22:14.164Z,79.45
2018-01-30T00:24:43.270Z,79.40
2018-01-30T00:27:12.357Z,79.26
2018-01-30T00:29:41.461Z,79.19
2018-01-30T00:32:10.589Z,79.29
2018-01-30T00:34:39.688Z,79.14
2018-01-30T00:37:09.545Z,79.08
2018-01-30T00:39:38.659Z,79.07
2018-01-30T00:42:07.756Z,78.98
2018-01-30T00:44:36.894Z,79.08
2018-01-30T00:47:06.763Z,79.13
2018-01-30T00:49:35.871Z,79.14
2018-01-30T00:52:04.976Z,79.25
2018-01-30T00:54:34.077Z,79.37
2018-01-30T00:57:03.200Z,79.46
2018-01-30T00:59:32.300Z,79.44
2018-01-30T01:02:01.412Z,79.57
2018-01-30T01:04:30.499Z,79.61
2018-01-30T01:06:59.607Z,79.61
2018-01-30T01:09:29.445Z,79.57
2018-01-30T01:11:58.560Z,79.60
2018-01-30T01:14:27.636Z,79.71
2018-01-30T01:16:57.548Z,79.82
2018-01-30T01:19:26.626Z,80.03
2018-01-30T01:21:56.481Z,80.14
2018-01-30T01:24:25.600Z,80.25
2018-01-30T01:26:54.707Z,80.34
2018-01-30T01:29:23.812Z,80.59
2018-01-30T01:31:52.918Z,80.70
2018-01-30T01:34:22.009Z,80.69
2018-01-30T01:36:51.907Z,80.64
2018-01-30T01:39:20.990Z,80.75
2018-01-30T01:41:50.089Z,80.64
2018-01-30T01:44:19.208Z,80.68
2018-01-30T01:46:49.056Z,80.69
2018-01-30T01:49:18.186Z,80.84
2018-01-30T01:51:47.277Z,80.97
2018-01-30T01:54:17.174Z,81.06
2018-01-30T01:56:47.021Z,81.12
2018-01-30T01:59:16.134Z,81.06
2018-01-30T02:01:46.007Z,80.90
2018-01-30T02:04:15.875Z,80.89
2018-01-30T02:06:44.963Z,81.04
2018-01-30T02:09:14.097Z,81.11
2018-01-30T02:11:43.206Z,81.03
2018-01-30T02:14:12.291Z,80.96
2018-01-30T02:16:42.204Z,80.98
2018-01-30T02:19:12.052Z,81.02
2018-01-30T02:21:41.158Z,81.02
2018-01-30T02:24:10.250Z,81.02
2018-01-30T02:26:40.123Z,81.07
2018-01-30T02:29:09.197Z,81.21
2018-01-30T02:31:38.311Z,81.10
2018-01-30T02:34:07.410Z,81.22
2018-01-30T02:36:37.258Z,81.12
2018-01-30T02:39:06.349Z,81.34
2018-01-30T02:41:36.225Z,81.49
2018-01-30T02:44:05.345Z,81.53
2018-01-30T02:46:34.450Z,81.66
2018-01-30T02:49:03.557Z,81.90
2018-01-30T02:51:32.650Z,82.27
2018-01-30T02:54:01.744Z,82.79
2018-01-30T02:56:30.847Z,82.89
2018-01-30T02:59:00.078Z,83.28
2018-01-30T03:01:29.165Z,83.40
2018-01-30T03:03:58.270Z,83.49
2018-01-30T03:06:27.349Z,82.39
2018-01-30T03:08:57.258Z,82.11
2018-01-30T03:11:26.337Z,82.52
2018-01-30T03:13:55.418Z,82.96
2018-01-30T03:16:24.526Z,83.69
2018-01-30T03:18:53.617Z,83.47
2018-01-30T03:21:23.486Z,83.55
2018-01-30T03:23:52.573Z,83.54
2018-01-30T03:26:21.689Z,83.61
2018-01-30T03:28:50.789Z,83.72
2018-01-30T03:31:19.887Z,83.96
2018-01-30T03:33:48.965Z,83.99
2018-01-30T03:36:18.846Z,84.07
2018-01-30T03:38:47.939Z,84.18
2018-01-30T03:41:17.033Z,84.55
2018-01-30T03:43:46.139Z,84.47
2018-01-30T03:46:15.226Z,84.68
2018-01-30T03:48:45.102Z,84.52
2018-01-30T03:51:14.196Z,84.58
2018-01-30T03:53:43.300Z,84.49
2018-01-30T03:56:12.386Z,84.65
2018-01-30T03:58:42.256Z,84.60
2018-01-30T04:01:11.342Z,84.77
2018-01-30T04:03:40.470Z,84.78
2018-01-30T04:06:09.568Z,84.54
2018-01-30T04:08:38.679Z,84.40
2018-01-30T04:11:07.770Z,84.39
2018-01-30T04:13:36.886Z,84.62
2018-01-30T04:18:32.603Z,84.53
2018-01-30T04:21:01.695Z,84.76
2018-01-30T04:23:30.783Z,84.88
2018-01-30T04:25:59.882Z,84.93
2018-01-30T04:28:28.973Z,84.82
2018-01-30T04:30:58.073Z,84.82
2018-01-30T04:33:27.955Z,84.85
2018-01-30T04:35:57.818Z,84.66
2018-01-30T04:38:27.667Z,84.51
2018-01-30T04:40:56.766Z,84.41
2018-01-30T04:43:25.847Z,84.55
2018-01-30T04:45:54.956Z,84.63
2018-01-30T04:48:24.044Z,83.56
2018-01-30T04:50:53.145Z,83.10
2018-01-30T04:53:22.244Z,82.96
2018-01-30T04:55:51.361Z,83.16
2018-01-30T04:58:20.458Z,83.02
2018-01-30T05:00:49.554Z,83.07
2018-01-30T05:03:18.666Z,83.06
2018-01-30T05:05:47.760Z,83.42
2018-01-30T05:08:16.892Z,83.51
2018-01-30T05:10:45.995Z,83.46
2018-01-30T05:13:15.108Z,83.41
2018-01-30T05:15:44.246Z,83.40
2018-01-30T05:18:13.327Z,82.80
2018-01-30T05:20:42.413Z,82.69
2018-01-30T05:23:11.522Z,81.67
2018-01-30T05:25:40.610Z,81.06
2018-01-30T05:28:09.725Z,80.69
2018-01-30T05:30:38.829Z,80.49
2018-01-30T05:33:07.950Z,81.00
2018-01-30T05:35:37.044Z,81.26
2018-01-30T05:38:06.912Z,80.09
2018-01-30T05:40:36.032Z,78.35
2018-01-30T05:43:05.116Z,77.35
2018-01-30T05:45:34.193Z,76.14
2018-01-30T05:48:03.298Z,75.16
2018-01-30T05:50:33.178Z,75.92
2018-01-30T05:53:02.277Z,76.96
2018-01-30T05:55:31.397Z,76.98
2018-01-30T05:58:00.509Z,77.12
2018-01-30T06:00:29.638Z,74.85
2018-01-30T06:02:58.778Z,75.16
2018-01-30T06:05:28.675Z,75.91
2018-01-30T06:07:57.797Z,77.26
2018-01-30T06:10:27.697Z,77.79
2018-01-30T06:12:56.814Z,78.54
2018-01-30T06:15:25.946Z,78.61
2018-01-30T06:17:55.832Z,78.68
2018-01-30T06:20:24.937Z,79.33
2018-01-30T06:22:54.051Z,79.45
2018-01-30T06:25:23.135Z,79.37
2018-01-30T06:27:52.244Z,79.64
2018-01-30T06:30:21.365Z,79.91
2018-01-30T06:32:50.458Z,79.79
2018-01-30T06:35:19.582Z,78.39
2018-01-30T06:37:48.694Z,78.96
2018-01-30T06:40:17.810Z,79.15
2018-01-30T06:42:46.895Z,79.57
2018-01-30T06:45:16.009Z,79.20
2018-01-30T06:47:45.119Z,78.60
2018-01-30T06:50:14.236Z,78.51
2018-01-30T06:52:44.099Z,78.99
2018-01-30T06:55:13.201Z,79.80
2018-01-30T06:57:42.290Z,80.18
2018-01-30T07:00:11.387Z,80.27
2018-01-30T07:02:40.520Z,80.72
2018-01-30T07:05:09.606Z,81.04
2018-01-30T07:07:38.731Z,81.54
2018-01-30T07:10:07.841Z,81.54
2018-01-30T07:12:36.960Z,81.51
2018-01-30T07:15:06.084Z,81.58
2018-01-30T07:17:35.180Z,79.32
2018-01-30T07:20:05.065Z,78.85
2018-01-30T07:22:34.182Z,78.18
2018-01-30T07:25:03.306Z,79.19
2018-01-30T07:27:32.416Z,79.43
2018-01-30T07:30:01.526Z,80.29
2018-01-30T07:32:30.633Z,80.54
2018-01-30T07:35:01.357Z,80.23
2018-01-30T07:37:30.473Z,80.21
2018-01-30T07:39:59.586Z,79.93
2018-01-30T07:42:28.674Z,79.97
2018-01-30T07:44:57.802Z,79.21
2018-01-30T07:47:26.877Z,79.75
2018-01-30T07:49:55.995Z,79.80
2018-01-30T07:52:25.091Z,80.52
2018-01-30T07:54:54.355Z,80.80
2018-01-30T07:57:23.468Z,80.74
2018-01-30T07:59:52.595Z,81.06
2018-01-30T08:02:21.717Z,81.37
2018-01-30T08:04:51.568Z,81.50
2018-01-30T08:07:20.694Z,81.21
2018-01-30T08:09:50.131Z,81.63
2018-01-30T08:12:19.224Z,81.74
2018-01-30T08:14:48.318Z,79.56
2018-01-30T08:17:17.441Z,79.09
2018-01-30T08:19:46.597Z,78.32
2018-01-30T08:22:16.455Z,79.30
2018-01-30T08:24:45.549Z,79.77
2018-01-30T08:27:14.656Z,80.50
2018-01-30T08:29:43.782Z,80.70
2018-01-30T08:32:13.658Z,80.46
2018-01-30T08:34:42.746Z,80.52
2018-01-30T08:37:11.886Z,80.82
2018-01-30T08:39:41.016Z,80.82
2018-01-30T08:42:10.867Z,80.75
2018-01-30T08:44:39.978Z,80.50
2018-01-30T08:47:09.106Z,80.54
2018-01-30T08:49:38.219Z,80.78
2018-01-30T08:52:07.336Z,80.75
2018-01-30T08:54:36.471Z,80.56
2018-01-30T08:57:05.572Z,80.64
2018-01-30T08:59:34.706Z,80.27
2018-01-30T09:02:03.886Z,79.88
2018-01-30T09:04:32.986Z,79.12
2018-01-30T09:07:02.119Z,78.78
2018-01-30T09:09:31.229Z,78.08
2018-01-30T09:12:00.332Z,77.93
2018-01-30T09:14:29.454Z,77.62
2018-01-30T09:16:58.537Z,77.42
2018-01-30T09:19:28.421Z,76.36
2018-01-30T09:21:57.534Z,76.53
2018-01-30T09:24:26.626Z,76.26
2018-01-30T09:26:56.514Z,76.64
2018-01-30T09:29:25.617Z,75.89
2018-01-30T09:31:55.505Z,74.33
2018-01-30T09:34:24.610Z,73.04
2018-01-30T09:36:53.701Z,73.14
2018-01-30T09:39:23.578Z,72.74
2018-01-30T09:41:53.449Z,72.68
2018-01-30T09:44:22.550Z,72.34
2018-01-30T09:46:51.646Z,71.97
2018-01-30T09:49:20.769Z,71.18
2018-01-30T09:51:49.869Z,71.39
2018-01-30T09:54:19.016Z,70.96
2018-01-30T09:56:48.877Z,71.09
2018-01-30T09:59:17.973Z,71.30
2018-01-30T10:01:47.089Z,71.20
2018-01-30T10:04:16.209Z,71.00
2018-01-30T10:06:45.323Z,70.84
2018-01-30T10:09:14.450Z,71.31
2018-01-30T10:11:43.558Z,70.72
2018-01-30T10:14:12.678Z,69.18
2018-01-30T10:16:41.802Z,68.29
2018-01-30T10:19:11.665Z,68.33
2018-01-30T10:21:40.790Z,68.31
2018-01-30T10:24:09.917Z,68.37
2018-01-30T10:26:39.024Z,68.73
2018-01-30T10:29:08.115Z,68.62
2018-01-30T10:31:37.235Z,67.44
2018-01-30T10:34:06.347Z,67.04
2018-01-30T10:36:36.245Z,67.78
2018-01-30T10:39:05.368Z,67.85
2018-01-30T10:41:34.474Z,68.53
2018-01-30T10:44:03.601Z,67.25
2018-01-30T10:46:32.791Z,64.94
2018-01-30T10:49:02.696Z,64.76
2018-01-30T10:51:32.540Z,64.73
2018-01-30T10:54:01.667Z,64.88
2018-01-30T10:56:31.529Z,64.91
2018-01-30T10:59:01.451Z,64.35
2018-01-30T11:01:30.545Z,64.48
2018-01-30T11:03:59.639Z,64.62
2018-01-30T11:06:28.769Z,65.58
2018-01-30T11:08:57.937Z,64.38
2018-01-30T11:11:27.014Z,64.31
2018-01-30T11:13:56.887Z,64.64
2018-01-30T11:16:26.003Z,65.07
2018-01-30T11:18:55.104Z,64.48
2018-01-30T11:21:24.234Z,64.57
2018-01-30T11:23:53.336Z,65.33
2018-01-30T11:26:22.454Z,65.33
2018-01-30T11:28:51.548Z,64.76
2018-01-30T11:31:20.682Z,65.43
2018-01-30T11:33:49.803Z,65.31
2018-01-30T11:36:18.895Z,65.57
2018-01-30T11:38:48.016Z,66.23
2018-01-30T11:41:17.176Z,66.14
2018-01-30T11:43:47.030Z,66.49
2018-01-30T11:46:16.137Z,66.06
2018-01-30T11:48:45.268Z,66.67
2018-01-30T11:51:15.879Z,66.97
2018-01-30T11:53:44.991Z,66.18
2018-01-30T11:56:14.113Z,65.95
2018-01-30T11:58:43.276Z,66.30
2018-01-30T12:01:13.131Z,65.46
2018-01-30T12:03:42.264Z,64.87
2018-01-30T12:06:11.392Z,64.90
2018-01-30T12:08:40.516Z,64.70
2018-01-30T12:11:10.380Z,65.75
2018-01-30T12:13:39.490Z,65.98
2018-01-30T12:16:08.652Z,67.14
2018-01-30T12:18:37.845Z,66.16
2018-01-30T12:21:06.992Z,66.38
2018-01-30T12:23:36.885Z,66.26
2018-01-30T12:26:06.009Z,66.55
2018-01-30T12:28:35.081Z,66.65
2018-01-30T12:31:04.211Z,65.22
2018-01-30T12:33:33.301Z,65.42
2018-01-30T12:36:02.437Z,65.48
2018-01-30T12:38:31.569Z,65.54
2018-01-30T12:41:01.504Z,66.03
2018-01-30T12:43:31.368Z,66.14
2018-01-30T12:46:00.538Z,66.34
2018-01-30T12:48:29.670Z,65.87
2018-01-30T12:50:58.796Z,66.57
2018-01-30T12:53:27.964Z,66.85
2018-01-30T12:55:57.849Z,66.10
2018-01-30T12:58:26.979Z,66.71
2018-01-30T13:00:56.100Z,66.83
2018-01-30T13:03:25.195Z,66.08
2018-01-30T13:05:54.327Z,65.93
2018-01-30T13:08:23.426Z,66.40
2018-01-30T13:10:52.537Z,66.35
2018-01-30T13:13:22.405Z,66.54
2018-01-30T13:15:51.530Z,66.26
2018-01-30T13:18:20.653Z,65.68
2018-01-30T13:20:50.536Z,65.83
2018-01-30T13:23:20.400Z,67.05
2018-01-30T13:25:49.542Z,66.97
2018-01-30T13:28:19.425Z,66.55
2018-01-30T13:30:48.530Z,66.62
2018-01-30T13:33:17.658Z,66.62
2018-01-30T13:35:46.797Z,66.49
2018-01-30T13:38:15.952Z,66.86
2018-01-30T13:40:45.058Z,66.41
2018-01-30T13:43:14.202Z,66.66
2018-01-30T13:45:43.367Z,66.23
2018-01-30T13:48:13.287Z,66.12
2018-01-30T13:50:43.026Z,65.46
2018-01-30T13:53:12.175Z,65.44
2018-01-30T13:55:41.282Z,65.37
2018-01-30T13:58:11.177Z,65.59
2018-01-30T14:00:40.316Z,64.85
2018-01-30T14:03:09.419Z,64.90
2018-01-30T14:05:38.580Z,65.28
2018-01-30T14:08:08.452Z,65.58
2018-01-30T14:10:37.575Z,65.98
2018-01-30T14:13:06.675Z,66.30
2018-01-30T14:15:36.588Z,66.64
2018-01-30T14:18:06.463Z,68.02
2018-01-30T14:20:35.573Z,68.70
2018-01-30T14:23:04.729Z,68.54
2018-01-30T14:25:33.824Z,69.01
2018-01-30T14:28:02.964Z,69.37
2018-01-30T14:30:32.853Z,69.31
2018-01-30T14:33:02.004Z,69.26
2018-01-30T14:35:31.131Z,69.10
2018-01-30T14:38:00.348Z,69.33
2018-01-30T14:40:29.466Z,69.44
2018-01-30T14:42:59.397Z,69.80
2018-01-30T14:45:36.034Z,69.76
2018-01-30T14:48:08.384Z,69.68
2018-01-30T14:50:37.583Z,70.26
2018-01-30T14:53:06.747Z,70.72
2018-01-30T15:16:08.339Z,70.78
2018-01-30T15:18:38.398Z,70.98
2018-01-30T15:21:07.515Z,70.86
2018-01-30T15:23:37.386Z,71.17
2018-01-30T15:26:06.493Z,71.30
2018-01-30T15:28:35.604Z,71.38
2018-01-30T15:31:04.749Z,70.85
2018-01-30T15:33:33.854Z,70.91
2018-01-30T15:36:02.988Z,71.16
2018-01-30T15:38:32.085Z,70.92
2018-01-30T15:41:01.209Z,71.37
2018-01-30T15:43:31.104Z,71.76
2018-01-30T15:46:00.233Z,72.16
2018-01-30T15:48:30.100Z,72.45
2018-01-30T15:50:59.259Z,72.54
2018-01-30T15:53:28.362Z,72.20
2018-01-30T15:55:57.513Z,72.21
2018-01-30T15:58:26.652Z,71.76
2018-01-30T16:00:55.767Z,71.77
2018-01-30T16:03:24.953Z,71.79
2018-01-30T16:05:54.093Z,72.61
2018-01-30T16:08:23.202Z,72.94
2018-01-30T16:10:52.312Z,73.45
2018-01-30T16:13:21.420Z,73.41
2018-01-30T16:15:50.564Z,73.66
2018-01-30T16:18:20.482Z,73.40
2018-01-30T16:20:49.620Z,73.30
2018-01-30T16:23:20.033Z,73.21
2018-01-30T16:25:49.947Z,73.23
2018-01-30T16:28:19.845Z,73.44
2018-01-30T16:30:48.985Z,73.51
2018-01-30T16:33:18.099Z,73.54
2018-01-30T16:35:47.261Z,73.05
2018-01-30T16:38:17.119Z,73.35
2018-01-30T16:40:46.331Z,73.71
2018-01-30T16:43:15.454Z,74.17
2018-01-30T16:45:44.602Z,74.00
2018-01-30T16:48:13.713Z,74.08
2018-01-30T16:50:42.809Z,74.12
2018-01-30T16:53:12.743Z,74.37
2018-01-30T16:55:41.850Z,74.24
2018-01-30T16:58:10.966Z,74.01
2018-01-30T17:00:40.087Z,74.39
2018-01-30T17:03:09.265Z,74.34
2018-01-30T17:05:39.134Z,74.73
2018-01-30T17:08:08.242Z,75.08
2018-01-30T17:10:37.373Z,74.89
2018-01-30T17:13:06.489Z,74.88
2018-01-30T17:15:35.595Z,75.10
2018-01-30T17:18:04.722Z,74.64
2018-01-30T17:20:33.853Z,74.91
2018-01-30T17:23:03.742Z,75.15
2018-01-30T17:25:32.846Z,75.05
2018-01-30T17:28:01.999Z,74.83
2018-01-30T17:30:31.107Z,74.91
2018-01-30T17:33:00.227Z,75.14
2018-01-30T17:35:29.324Z,75.01
2018-01-30T17:37:59.236Z,75.46
2018-01-30T17:40:28.353Z,76.15
2018-01-30T17:42:58.243Z,76.19
2018-01-30T17:45:27.380Z,75.72
2018-01-30T17:47:56.467Z,76.14
2018-01-30T17:50:26.847Z,76.88
2018-01-30T17:52:55.954Z,77.41
2018-01-30T17:55:25.068Z,77.78
2018-01-30T17:57:54.959Z,78.04
2018-01-30T18:00:24.101Z,77.95
2018-01-30T18:02:54.006Z,78.21
2018-01-30T18:05:23.873Z,78.41
2018-01-30T18:07:53.002Z,78.49
2018-01-30T18:10:22.892Z,78.52
2018-01-30T18:12:52.032Z,78.44
2018-01-30T18:15:21.167Z,78.34
2018-01-30T18:17:50.292Z,78.25
2018-01-30T18:20:19.417Z,78.26
2018-01-30T18:22:49.318Z,78.38
2018-01-30T18:25:18.465Z,78.35
2018-01-30T18:27:47.602Z,78.22
2018-01-30T18:30:16.746Z,78.18
2018-01-30T18:32:45.864Z,78.10
2018-01-30T18:35:15.002Z,78.19
2018-01-30T18:37:44.146Z,78.20
2018-01-30T18:40:13.249Z,78.31
2018-01-30T18:42:43.158Z,78.25
2018-01-30T18:45:12.242Z,78.22
2018-01-30T18:47:41.401Z,78.03
2018-01-30T18:50:10.553Z,77.54
2018-01-30T18:52:39.709Z,77.70
2018-01-30T18:55:09.635Z,77.75
2018-01-30T18:57:39.546Z,77.38
2018-01-30T19:00:09.438Z,76.56
2018-01-30T19:02:38.647Z,75.92
2018-01-30T19:05:07.782Z,76.16
2018-01-30T19:07:37.063Z,76.09
2018-01-30T19:10:06.964Z,75.97
2018-01-30T19:12:36.847Z,76.18
2018-01-30T19:15:05.950Z,75.92
2018-01-30T19:17:35.352Z,76.70
2018-01-30T19:20:04.492Z,76.30
2018-01-30T19:22:33.781Z,76.11
2018-01-30T19:25:03.679Z,75.85
2018-01-30T19:27:32.817Z,75.43
2018-01-30T19:30:01.972Z,75.45
2018-01-30T19:32:32.102Z,75.31
2018-01-30T19:35:01.950Z,75.07
2018-01-30T19:37:31.139Z,75.14
2018-01-30T19:40:00.230Z,75.89
2018-01-30T19:42:29.349Z,76.02
2018-01-30T19:44:58.459Z,75.67
2018-01-30T19:47:27.610Z,75.17
2018-01-30T19:49:57.490Z,74.89
2018-01-30T19:52:26.623Z,74.76
2018-01-30T19:54:55.723Z,74.76
2018-01-30T19:57:24.847Z,74.87
2018-01-30T19:59:53.971Z,74.87
2018-01-30T20:02:23.105Z,74.67
2018-01-30T20:04:53.002Z,75.59
2018-01-30T20:07:22.122Z,76.06
2018-01-30T20:09:52.029Z,76.42
2018-01-30T20:12:22.087Z,75.88
2018-01-30T20:14:51.993Z,75.95
2018-01-30T20:17:26.554Z,76.05
2018-01-30T20:19:55.731Z,76.00
2018-01-30T20:22:24.831Z,75.88
2018-01-30T20:24:53.975Z,75.69
2018-01-30T20:27:23.864Z,76.90
2018-01-30T20:29:53.018Z,76.60
2018-01-30T20:32:23.029Z,76.84
2018-01-30T20:34:52.170Z,76.73
2018-01-30T20:37:23.065Z,76.54
2018-01-30T20:39:52.185Z,76.50
2018-01-30T20:42:21.399Z,76.25
2018-01-30T20:44:50.519Z,75.87
2018-01-30T20:47:20.438Z,76.18
2018-01-30T20:49:49.561Z,76.31
2018-01-30T20:52:18.682Z,76.54
2018-01-30T20:54:47.763Z,76.86
2018-01-30T20:57:16.917Z,76.11
2018-01-30T20:59:46.811Z,75.81
2018-01-30T21:02:15.947Z,76.03
2018-01-30T21:04:45.867Z,76.23
2018-01-30T21:07:15.748Z,75.29
2018-01-30T21:09:44.866Z,75.21
2018-01-30T21:12:14.743Z,75.22
2018-01-30T21:14:44.633Z,75.39
2018-01-30T21:17:13.742Z,75.49
2018-01-30T21:19:43.624Z,75.57
2018-01-30T21:22:12.743Z,75.53
2018-01-30T21:24:41.877Z,75.14
2018-01-30T21:27:11.771Z,74.41
2018-01-30T21:29:40.916Z,74.78
2018-01-30T21:32:11.543Z,74.29
2018-01-30T21:34:41.441Z,74.09
2018-01-30T21:37:10.562Z,73.96
2018-01-30T21:39:39.692Z,73.86
2018-01-30T21:42:08.825Z,73.55
2018-01-30T21:44:37.898Z,73.63
2018-01-30T21:47:07.047Z,73.54
2018-01-30T21:49:36.881Z,73.45
2018-01-30T21:52:06.030Z,73.33
2018-01-30T21:54:35.139Z,73.09
2018-01-30T21:57:05.019Z,73.17
2018-01-30T21:59:34.156Z,73.00
2018-01-30T22:02:04.063Z,72.99
2018-01-30T22:04:33.904Z,73.93
2018-01-30T22:07:03.029Z,73.83
2018-01-30T22:09:32.141Z,74.11
2018-01-30T22:12:01.295Z,74.75
2018-01-30T22:14:30.382Z,74.81
2018-01-30T22:16:59.470Z,74.54
2018-01-30T22:19:29.347Z,74.56
2018-01-30T22:21:58.488Z,74.20
2018-01-30T22:24:28.359Z,74.16
2018-01-30T22:26:57.457Z,74.21
2018-01-30T22:29:26.575Z,73.83
2018-01-30T22:31:56.425Z,74.15
2018-01-30T22:34:25.514Z,74.20
2018-01-30T22:36:54.657Z,73.78
2018-01-30T22:39:23.765Z,74.05
2018-01-30T22:41:53.655Z,73.80
2018-01-30T22:44:29.989Z,73.90
2018-01-30T22:46:51.854Z,74.09
